Time;durP1;ratioP1;P1;durP2;ratioP2;P2;SDS_P1;SDS_P2;PMS_P1;PMS_P2;Temp;Humidity;BMP_temperature;BMP_pressure;BME280_temperature;BME280_humidity;BME280_pressure;Samples;Min_cycle;Max_cycle;Signal;HPM_P1;HPM_P2
2022/12/21 00:01:30;;;;;;;;;11.50;7.50;;;;;10.99;92.95;100261.13;4987204;28;47539;-89
2022/12/21 00:04:00;;;;;;;;;6.75;5.50;;;;;10.71;93.32;100222.22;4966249;28;45759;-89
2022/12/21 00:06:28;;;;;;;;;7.25;7.25;;;;;11.59;93.76;100372.44;4973525;28;45442;-90
2022/12/21 00:08:57;;;;;;;;;7.50;7.50;;;;;11.04;93.16;100293.63;4983526;28;45532;-91
2022/12/21 00:11:24;;;;;;;;;8.00;7.25;;;;;11.60;93.33;100390.03;4986527;28;48438;-90
2022/12/21 00:13:51;;;;;;;;;9.25;8.00;;;;;10.91;93.17;100255.19;4989322;28;45867;-91
2022/12/21 00:16:20;;;;;;;;;6.00;6.00;;;;;9.56;93.43;100038.44;4990076;28;45270;-90
2022/12/21 00:18:46;;;;;;;;;7.00;7.00;;;;;10.59;93.46;100217.25;4985014;28;45339;-90
2022/12/21 00:21:21;;;;;;;;;5.00;5.00;;;;;11.59;93.30;100391.84;4979265;28;47201;-90
2022/12/21 00:23:49;;;;;;;;;5.50;5.50;;;;;11.61;93.32;100399.72;4965780;28;45283;-89
2022/12/21 00:26:18;;;;;;;;;8.00;7.25;;;;;11.02;92.98;100287.50;4959883;28;44769;-89
2022/12/21 00:28:43;;;;;;;;;6.75;6.75;;;;;11.10;93.17;100297.88;4953717;28;45328;-90
2022/12/21 00:31:16;;;;;;;;;7.50;5.75;;;;;11.23;93.47;100301.06;4952027;28;46815;-89
2022/12/21 00:33:43;;;;;;;;;5.00;5.00;;;;;11.61;93.33;100381.19;4967572;28;45277;-91
2022/12/21 00:36:11;;;;;;;;;8.50;7.25;;;;;11.61;93.82;100363.53;4966133;28;45271;-92
2022/12/21 00:38:37;;;;;;;;;5.75;4.00;;;;;9.89;93.17;100081.63;4962188;28;45394;-91
2022/12/21 00:41:06;;;;;;;;;5.75;4.75;;;;;10.34;93.01;100156.22;4944263;28;47234;-90
2022/12/21 00:43:36;;;;;;;;;9.25;8.25;;;;;11.32;93.27;100322.00;4948045;28;45391;-92
2022/12/21 00:46:06;;;;;;;;;8.50;8.50;;;;;10.64;93.49;100218.88;4966158;28;45334;-91
2022/12/21 00:48:33;;;;;;;;;9.75;8.50;;;;;9.97;92.93;100091.97;4949500;28;45335;-91
2022/12/21 00:51:07;;;;;;;;;8.00;8.00;;;;;11.15;93.41;100286.28;4964956;28;45307;-89
2022/12/21 00:53:33;;;;;;;;;7.00;7.00;;;;;11.65;93.30;100366.97;4967548;28;44957;-91
2022/12/21 00:56:00;;;;;;;;;7.75;6.75;;;;;10.11;93.13;100108.34;4972997;28;45434;-91
2022/12/21 00:58:28;;;;;;;;;6.25;6.25;;;;;10.02;93.28;100094.50;4989672;28;45458;-91
2022/12/21 01:00:57;;;;;;;;;8.00;6.00;;;;;11.65;93.47;100383.72;4969363;28;47576;-92
2022/12/21 01:03:23;;;;;;;;;7.75;7.75;;;;;10.68;92.97;100210.88;4974211;28;44855;-90
2022/12/21 01:05:50;;;;;;;;;6.50;6.50;;;;;11.66;92.99;100376.63;4982709;28;45501;-92
2022/12/21 01:08:20;;;;;;;;;7.50;5.50;;;;;11.00;93.11;100268.19;4982168;28;45477;-92
2022/12/21 01:10:46;;;;;;;;;7.25;7.25;;;;;11.38;93.46;100343.00;4983904;28;47564;-90
2022/12/21 01:13:13;;;;;;;;;8.00;7.00;;;;;11.67;93.29;100394.28;4992385;28;45368;-90
2022/12/21 01:15:43;;;;;;;;;7.25;7.25;;;;;10.81;93.05;100242.22;4998631;28;45412;-91
2022/12/21 01:18:10;;;;;;;;;6.50;6.50;;;;;11.25;93.23;100309.84;4977750;28;45631;-91
2022/12/21 01:20:48;;;;;;;;;5.00;5.00;;;;;11.33;93.59;100323.75;4945678;28;46845;-92
2022/12/21 01:23:17;;;;;;;;;6.50;6.50;;;;;11.66;93.61;100385.47;4947960;28;46077;-90
2022/12/21 01:25:43;;;;;;;;;3.00;3.00;;;;;10.86;93.05;100263.25;4969378;28;45346;-91
2022/12/21 01:28:09;;;;;;;;;5.25;5.25;;;;;11.01;93.83;100297.22;4955359;28;45259;-91
2022/12/21 01:30:35;;;;;;;;;8.25;7.50;;;;;10.84;93.70;100255.38;5003424;28;45471;-91
2022/12/21 01:33:01;;;;;;;;;6.00;6.00;;;;;11.37;93.13;100354.47;4988301;28;45745;-92
2022/12/21 01:35:26;;;;;;;;;4.00;4.00;;;;;11.66;93.14;100403.13;4986114;28;45321;-91
2022/12/21 01:37:52;;;;;;;;;5.25;5.25;;;;;10.24;93.34;100148.50;4984654;28;45730;-90
2022/12/21 01:40:18;;;;;;;;;5.50;4.25;;;;;10.90;93.25;100261.38;5001773;28;48077;-91
2022/12/21 01:42:44;;;;;;;;;4.50;4.00;;;;;11.29;92.98;100332.66;4984667;28;45283;-90
2022/12/21 01:45:29;;;;;;;;;4.50;4.50;;;;;11.67;93.16;100391.63;4999633;28;45595;-90
2022/12/21 01:47:57;;;;;;;;;3.00;3.00;;;;;11.20;93.04;100331.13;4985525;28;45283;-89
2022/12/21 01:50:31;;;;;;;;;4.00;4.00;;;;;11.66;93.34;100400.47;4988729;28;47224;-89
2022/12/21 01:53:01;;;;;;;;;5.00;5.00;;;;;10.56;93.28;100230.53;4985967;28;45337;-89
2022/12/21 01:55:29;;;;;;;;;6.50;5.00;;;;;11.64;93.09;100419.03;4985930;28;45358;-90
2022/12/21 01:57:55;;;;;;;;;6.25;6.25;;;;;10.53;93.23;100231.47;4988170;28;45304;-90
2022/12/21 02:00:21;;;;;;;;;4.00;4.00;;;;;11.64;93.33;100413.75;5005021;28;45417;-89
2022/12/21 02:02:55;;;;;;;;;4.25;4.00;;;;;11.64;93.13;100424.34;4982902;28;45306;-91
2022/12/21 02:05:57;;;;;;;;;5.50;3.75;;;;;11.25;93.37;100339.81;4973185;28;45334;-91
2022/12/21 02:08:23;;;;;;;;;3.00;3.00;;;;;10.02;92.83;100142.91;4980147;28;45497;-90
2022/12/21 02:10:53;;;;;;;;;3.50;3.00;;;;;10.61;92.98;100255.06;4966544;28;46903;-90
2022/12/21 02:13:19;;;;;;;;;6.00;5.00;;;;;11.50;93.31;100411.47;4970039;28;45278;-91
2022/12/21 02:16:00;;;;;;;;;5.00;5.00;;;;;11.64;93.24;100429.63;4969903;28;45294;-90
2022/12/21 02:18:37;;;;;;;;;3.00;2.00;;;;;11.64;93.19;100434.06;4965712;28;45480;-91
2022/12/21 02:21:08;;;;;;;;;5.00;4.00;;;;;11.60;92.69;100428.00;4986208;28;46521;-92
2022/12/21 02:23:37;;;;;;;;;3.00;2.75;;;;;11.57;92.74;100428.06;4988695;28;45262;-91
2022/12/21 02:26:37;;;;;;;;;3.00;3.00;;;;;11.52;92.62;100424.66;5002428;28;45454;-89
2022/12/21 02:29:36;;;;;;;;;1.75;1.75;;;;;11.46;92.91;100424.81;4987329;28;45278;-92
2022/12/21 02:36:02;;;;;;;;;1.00;1.00;;;;;11.16;92.86;100393.81;4989583;28;45320;-89
2022/12/21 02:38:47;;;;;;;;;1.75;1.75;;;;;10.89;92.26;100370.72;4897802;28;45413;-91
2022/12/21 02:41:32;;;;;;;;;2.25;2.00;;;;;10.03;92.71;100250.25;4909069;29;45595;-89
2022/12/21 02:44:26;;;;;;;;;1.75;1.75;;;;;10.21;92.20;100293.00;4902917;29;45431;-90
2022/12/21 02:47:03;;;;;;;;;2.00;2.00;;;;;10.41;92.43;100346.25;4896712;29;45425;-90
2022/12/21 02:49:33;;;;;;;;;1.50;1.50;;;;;10.88;92.60;100440.38;4889661;28;45342;-89
2022/12/21 02:52:18;;;;;;;;;2.75;2.25;;;;;9.13;92.13;100158.13;4921603;28;45492;-91
2022/12/21 02:54:44;;;;;;;;;3.00;1.00;;;;;10.37;92.24;100368.41;4912316;28;45391;-91
2022/12/21 02:57:10;;;;;;;;;2.50;1.75;;;;;9.54;92.41;100254.84;4909530;28;44983;-91
2022/12/21 02:59:43;;;;;;;;;1.00;1.00;;;;;10.58;92.61;100429.56;4911211;28;45248;-90
2022/12/21 03:02:38;;;;;;;;;2.25;2.00;;;;;8.93;92.27;100177.84;4888911;29;45509;-91
2022/12/21 03:05:22;;;;;;;;;2.50;2.00;;;;;10.44;92.21;100433.38;4922566;28;47499;-90
2022/12/21 03:08:07;;;;;;;;;1.00;1.00;;;;;10.37;91.99;100436.19;4924972;28;45571;-90
2022/12/21 03:10:59;;;;;;;;;1.50;1.50;;;;;10.31;92.36;100439.81;4926104;28;45348;-89
2022/12/21 03:13:34;;;;;;;;;1.00;1.00;;;;;10.25;92.02;100437.31;4916594;28;45532;-90
2022/12/21 03:16:18;;;;;;;;;2.00;2.00;;;;;9.85;91.77;100401.13;4980487;28;47707;-89
2022/12/21 03:19:13;;;;;;;;;2.25;2.25;;;;;10.12;92.17;100456.03;4987877;28;45361;-90
2022/12/21 03:21:47;;;;;;;;;3.00;3.00;;;;;10.07;92.17;100447.34;5004654;28;45325;-89
2022/12/21 03:24:25;;;;;;;;;2.00;2.00;;;;;10.04;91.87;100446.53;5007276;28;45175;-90
2022/12/21 03:27:05;;;;;;;;;1.50;1.00;;;;;9.65;92.46;100393.59;5013123;28;45498;-91
2022/12/21 03:29:37;;;;;;;;;2.50;1.00;;;;;9.50;91.78;100385.06;4995594;28;44867;-90
2022/12/21 03:32:11;;;;;;;;;2.25;2.25;;;;;8.84;92.11;100257.06;4989636;28;45468;-91
2022/12/21 03:34:40;;;;;;;;;2.00;2.00;;;;;9.27;91.88;100340.66;4984190;28;45514;-90
2022/12/21 03:37:11;;;;;;;;;1.75;1.75;;;;;9.31;91.90;100365.22;4967782;28;47001;-91
2022/12/21 03:39:44;;;;;;;;;1.25;1.00;;;;;9.24;91.87;100346.00;4982322;28;45420;-90
2022/12/21 03:42:32;;;;;;;;;2.25;2.25;;;;;9.47;91.75;100405.38;4985793;28;45298;-91
2022/12/21 03:45:04;;;;;;;;;3.25;2.00;;;;;9.06;91.52;100323.44;4975151;28;45656;-91
2022/12/21 03:47:42;;;;;;;;;3.00;1.00;;;;;9.22;92.02;100361.84;4984038;28;47457;-90
2022/12/21 03:50:17;;;;;;;;;3.00;1.00;;;;;9.84;92.02;100461.00;5003979;28;45418;-91
2022/12/21 03:53:03;;;;;;;;;0.50;0.50;;;;;9.45;91.80;100396.63;5011412;28;45337;-91
2022/12/21 03:55:33;;;;;;;;;1.00;1.00;;;;;9.37;92.01;100381.81;5010751;28;45285;-90
2022/12/21 03:58:01;;;;;;;;;1.75;1.75;;;;;8.81;91.89;100288.75;4990780;28;47153;-91
2022/12/21 04:00:34;;;;;;;;;1.25;1.00;;;;;8.64;91.56;100255.66;4996802;28;44760;-91
2022/12/21 04:03:10;;;;;;;;;0.00;0.00;;;;;9.47;91.58;100415.91;4964961;28;45531;-91
2022/12/21 04:05:46;;;;;;;;;1.00;1.00;;;;;9.84;91.43;100462.75;4976452;28;45381;-91
2022/12/21 04:08:15;;;;;;;;;1.00;1.00;;;;;9.31;91.24;100378.41;4979946;28;47746;-93
2022/12/21 04:10:47;;;;;;;;;0.00;0.00;;;;;8.66;91.25;100289.88;4985496;28;45258;-91
2022/12/21 04:13:13;;;;;;;;;1.25;0.50;;;;;9.78;91.50;100472.53;4991340;28;45281;-90
2022/12/21 04:21:07;;;;;;;;;1.00;1.00;;;;;9.71;91.57;100472.66;4993111;28;45340;-89
2022/12/21 04:29:03;;;;;;;;;1.00;1.00;;;;;8.31;91.07;100263.16;5004271;28;45407;-90
2022/12/21 04:31:31;;;;;;;;;3.00;1.25;;;;;8.62;91.22;100318.03;4986832;28;45367;-90
2022/12/21 04:33:57;;;;;;;;;1.00;1.00;;;;;8.64;91.11;100328.53;4984556;28;45208;-91
2022/12/21 04:39:08;;;;;;;;;1.00;0.00;;;;;9.30;91.11;100448.72;4921898;28;45326;-90
2022/12/21 04:41:36;;;;;;;;;0.50;0.50;;;;;9.63;91.11;100501.84;4924803;28;45365;-90
2022/12/21 04:44:01;;;;;;;;;2.00;0.75;;;;;8.77;91.29;100348.53;4903209;29;45837;-90
2022/12/21 04:46:27;;;;;;;;;2.25;1.00;;;;;8.08;91.07;100238.97;4898037;29;45613;-90
2022/12/21 04:48:52;;;;;;;;;0.75;0.75;;;;;9.63;91.00;100485.16;4870143;29;47397;-90
2022/12/21 04:51:24;;;;;;;;;1.25;1.25;;;;;9.05;91.10;100396.41;4876374;29;45501;-92
2022/12/21 04:53:51;;;;;;;;;1.25;1.00;;;;;8.29;91.00;100282.50;4912307;29;45448;-92
2022/12/21 04:56:17;;;;;;;;;3.00;1.00;;;;;7.96;91.22;100214.56;4896199;29;45386;-92
2022/12/21 04:58:44;;;;;;;;;1.00;1.00;;;;;8.63;90.98;100338.22;4904323;29;47032;-92
2022/12/21 05:01:14;;;;;;;;;1.00;1.00;;;;;9.60;90.98;100497.47;4889440;29;45369;-91
2022/12/21 05:03:40;;;;;;;;;0.00;0.00;;;;;9.47;90.98;100468.69;4901306;29;45327;-91
2022/12/21 05:06:07;;;;;;;;;1.00;1.00;;;;;8.55;90.88;100337.47;4905786;29;45482;-92
2022/12/21 05:08:32;;;;;;;;;1.00;1.00;;;;;8.88;90.80;100390.53;4908894;29;48701;-92
2022/12/21 05:11:29;;;;;;;;;1.00;1.00;;;;;9.57;91.28;100507.22;4908218;29;45787;-91
2022/12/21 05:13:57;;;;;;;;;1.25;1.00;;;;;8.39;90.77;100307.81;4879727;29;45374;-91
2022/12/21 05:16:24;;;;;;;;;1.50;1.50;;;;;9.52;90.86;100514.31;4936654;28;45607;-91
2022/12/21 05:18:52;;;;;;;;;1.00;1.00;;;;;8.88;90.97;100416.88;4962278;28;47049;-91
2022/12/21 05:21:18;;;;;;;;;1.00;1.00;;;;;8.41;90.27;100336.78;4969902;28;45309;-90
2022/12/21 05:23:44;;;;;;;;;1.00;1.00;;;;;9.14;90.66;100457.78;4981282;28;44778;-91
2022/12/21 05:26:10;;;;;;;;;1.00;1.00;;;;;7.88;90.51;100262.94;4960722;28;45524;-91
2022/12/21 05:28:36;;;;;;;;;0.00;0.00;;;;;7.85;90.24;100244.56;4971420;28;47082;-92
2022/12/21 05:31:05;;;;;;;;;1.00;1.00;;;;;9.00;91.08;100443.09;4955042;28;45349;-90
2022/12/21 05:33:32;;;;;;;;;0.50;0.50;;;;;7.45;90.38;100185.47;4969505;28;45377;-90
2022/12/21 05:36:02;;;;;;;;;1.00;1.00;;;;;8.04;90.11;100295.19;4953457;28;45369;-92
2022/12/21 05:38:27;;;;;;;;;0.75;0.75;;;;;8.82;90.80;100435.44;4966391;28;47741;-89
2022/12/21 05:40:52;;;;;;;;;1.00;1.00;;;;;8.54;90.47;100386.63;4965028;28;45719;-90
2022/12/21 05:43:18;;;;;;;;;1.25;1.25;;;;;9.24;90.87;100514.78;4984973;28;45263;-92
2022/12/21 05:45:44;;;;;;;;;0.00;0.00;;;;;8.92;90.72;100463.41;4981356;28;45539;-90
2022/12/21 05:48:11;;;;;;;;;0.75;0.75;;;;;8.53;90.50;100394.56;4965485;28;45447;-91
2022/12/21 05:50:40;;;;;;;;;1.25;0.25;;;;;8.20;90.50;100354.63;4967876;28;45885;-89
2022/12/21 05:53:10;;;;;;;;;1.50;1.50;;;;;7.81;90.60;100304.25;4950580;28;45307;-91
2022/12/21 05:55:36;;;;;;;;;1.25;1.25;;;;;9.11;90.54;100518.47;4976351;28;45695;-92
2022/12/21 05:58:03;;;;;;;;;2.25;2.25;;;;;8.66;90.48;100459.38;4974484;28;47260;-90
2022/12/21 06:00:29;;;;;;;;;1.00;1.00;;;;;8.61;90.71;100469.13;4964665;28;45405;-91
2022/12/21 06:02:59;;;;;;;;;2.00;1.00;;;;;8.98;90.64;100517.81;4980942;28;45290;-91
2022/12/21 06:05:27;;;;;;;;;1.50;1.50;;;;;8.25;90.19;100396.69;4945369;28;45391;-90
2022/12/21 06:07:52;;;;;;;;;2.00;2.00;;;;;8.19;90.33;100416.94;4972307;28;47075;-90
2022/12/21 06:10:18;;;;;;;;;1.00;1.00;;;;;8.30;90.12;100435.22;4954969;28;45361;-91
2022/12/21 06:12:44;;;;;;;;;1.00;1.00;;;;;8.47;90.22;100452.59;4971780;28;45239;-91
2022/12/21 06:15:09;;;;;;;;;1.25;1.25;;;;;8.44;90.54;100468.44;4974987;28;45512;-91
2022/12/21 06:17:35;;;;;;;;;1.00;1.00;;;;;7.86;90.28;100365.56;4980105;28;47120;-91
2022/12/21 06:20:04;;;;;;;;;2.00;2.00;;;;;8.04;90.41;100385.53;4954570;28;45246;-90
2022/12/21 06:22:34;;;;;;;;;0.75;0.75;;;;;7.99;90.71;100395.28;4988278;28;44664;-92
2022/12/21 06:25:02;;;;;;;;;1.50;1.50;;;;;8.27;90.20;100451.06;4982867;28;45417;-92
2022/12/21 06:27:33;;;;;;;;;2.25;2.25;;;;;7.94;90.62;100413.75;4979318;28;47619;-91
2022/12/21 06:30:04;;;;;;;;;1.00;1.00;;;;;7.81;90.43;100397.22;4965903;28;45360;-90
2022/12/21 06:32:29;;;;;;;;;2.00;2.00;;;;;7.50;90.27;100346.72;4987592;28;44731;-92
2022/12/21 06:34:55;;;;;;;;;2.50;1.00;;;;;7.41;90.21;100333.63;4964396;28;45155;-91
2022/12/21 06:37:20;;;;;;;;;1.25;1.00;;;;;7.74;90.70;100395.53;4984155;28;46354;-90
2022/12/21 06:39:46;;;;;;;;;3.50;2.50;;;;;7.73;90.95;100403.44;4970946;28;45388;-91
2022/12/21 06:42:11;;;;;;;;;3.00;3.00;;;;;6.37;90.29;100191.91;4983248;28;45270;-90
2022/12/21 06:44:37;;;;;;;;;2.75;2.00;;;;;7.73;90.35;100406.97;4985404;28;45570;-93
2022/12/21 06:47:04;;;;;;;;;4.00;2.00;;;;;7.44;90.48;100366.06;4998803;28;45506;-91
2022/12/21 06:49:30;;;;;;;;;2.50;2.50;;;;;7.50;90.13;100388.81;5008432;28;45353;-91
2022/12/21 06:51:56;;;;;;;;;1.25;1.25;;;;;7.01;90.42;100299.88;5007036;28;45285;-90
2022/12/21 06:54:21;;;;;;;;;2.00;1.50;;;;;8.47;91.00;100536.91;4989108;28;45251;-91
2022/12/21 06:56:47;;;;;;;;;2.25;2.25;;;;;7.25;90.44;100341.69;4983182;28;47724;-92
2022/12/21 06:59:12;;;;;;;;;2.75;2.50;;;;;7.59;90.34;100430.78;4982082;28;45247;-91
2022/12/21 07:01:38;;;;;;;;;2.75;2.50;;;;;7.16;90.96;100352.31;5005288;28;45237;-92
2022/12/21 07:04:04;;;;;;;;;1.50;1.50;;;;;7.96;91.48;100488.28;4995065;28;44934;-93
2022/12/21 07:06:33;;;;;;;;;2.75;2.75;;;;;7.62;90.77;100427.22;4986161;28;46582;-92
2022/12/21 07:09:04;;;;;;;;;3.00;3.00;;;;;7.57;91.01;100432.53;4989577;28;45295;-92
2022/12/21 07:11:37;;;;;;;;;4.50;3.50;;;;;8.03;90.88;100517.19;4986973;28;45191;-91
2022/12/21 07:14:02;;;;;;;;;6.00;4.00;;;;;6.79;90.66;100307.09;4971739;28;45322;-92
2022/12/21 07:16:28;;;;;;;;;2.75;2.75;;;;;8.29;90.45;100578.34;5004121;28;46763;-92
2022/12/21 07:18:53;;;;;;;;;2.00;2.00;;;;;6.73;90.56;100295.75;5003932;28;45324;-91
2022/12/21 07:21:20;;;;;;;;;4.75;3.75;;;;;6.51;90.64;100263.56;4989806;28;45334;-92
2022/12/21 07:23:47;;;;;;;;;3.00;3.00;;;;;7.90;90.63;100493.63;4988156;28;45551;-91
2022/12/21 07:26:16;;;;;;;;;4.00;4.00;;;;;8.25;90.74;100571.34;4985258;28;46823;-92
2022/12/21 07:28:45;;;;;;;;;4.25;4.25;;;;;7.83;90.69;100486.66;4982907;28;45242;-92
2022/12/21 07:31:14;;;;;;;;;9.25;5.25;;;;;7.82;90.26;100490.19;4983720;28;45369;-91
2022/12/21 07:33:43;;;;;;;;;5.75;4.00;;;;;7.13;90.00;100390.91;4987415;28;45364;-91
2022/12/21 07:36:12;;;;;;;;;4.25;4.00;;;;;8.22;90.56;100558.22;5009918;28;47066;-91
2022/12/21 07:38:40;;;;;;;;;6.00;4.00;;;;;7.08;90.85;100378.66;4989026;28;45345;-92
2022/12/21 07:41:09;;;;;;;;;3.75;3.75;;;;;6.68;90.48;100318.56;5006429;28;44833;-92
2022/12/21 07:43:35;;;;;;;;;4.25;2.75;;;;;6.35;90.04;100267.19;4956149;28;44870;-92
2022/12/21 07:46:02;;;;;;;;;3.00;3.00;;;;;6.88;90.55;100362.22;4964798;28;48249;-91
2022/12/21 07:48:32;;;;;;;;;6.50;5.50;;;;;8.03;90.39;100546.13;4963706;28;45365;-93
2022/12/21 07:50:59;;;;;;;;;4.75;4.75;;;;;6.75;89.80;100340.41;4956369;28;45218;-93
2022/12/21 07:53:25;;;;;;;;;5.75;5.50;;;;;7.67;90.08;100508.75;4975312;28;45317;-89
2022/12/21 07:55:56;;;;;;;;;4.00;3.75;;;;;7.91;89.59;100541.84;4968681;28;45484;-91
2022/12/21 07:58:26;;;;;;;;;3.75;3.75;;;;;7.28;90.44;100433.69;4967841;28;45310;-90
2022/12/21 08:00:51;;;;;;;;;3.75;3.75;;;;;8.15;90.70;100588.13;4954465;28;44839;-92
2022/12/21 08:03:18;;;;;;;;;4.00;4.00;;;;;7.57;90.36;100497.44;4968283;28;44868;-92
2022/12/21 08:05:43;;;;;;;;;3.50;3.50;;;;;7.33;90.17;100459.94;4969307;28;46935;-91
2022/12/21 08:08:16;;;;;;;;;6.75;5.75;;;;;7.25;89.81;100440.72;4970261;28;45329;-92
2022/12/21 08:10:52;;;;;;;;;3.75;3.75;;;;;6.18;89.97;100262.94;4973876;28;44901;-91
2022/12/21 08:13:21;;;;;;;;;6.00;4.25;;;;;7.78;90.17;100520.06;4974293;28;45519;-92
2022/12/21 08:15:48;;;;;;;;;4.75;4.75;;;;;7.03;89.98;100396.25;4972498;28;47635;-90
2022/12/21 08:18:35;;;;;;;;;3.25;3.25;;;;;7.44;89.93;100457.25;4970977;28;45212;-92
2022/12/21 08:21:04;;;;;;;;;6.50;4.25;;;;;7.67;90.18;100479.81;4972828;28;45223;-92
2022/12/21 08:23:33;;;;;;;;;7.25;4.75;;;;;7.13;89.85;100398.78;4975849;28;45515;-91
2022/12/21 08:26:12;;;;;;;;;12.00;6.00;;;;;8.38;89.53;100611.63;4956393;28;45574;-90
2022/12/21 08:28:47;;;;;;;;;7.50;4.25;;;;;8.28;90.29;100567.81;4936531;28;45515;-89
2022/12/21 08:32:00;;;;;;;;;6.00;5.00;;;;;7.24;89.40;100405.69;4975578;28;45500;-92
2022/12/21 08:34:25;;;;;;;;;4.75;4.75;;;;;8.53;89.58;100595.69;4964092;28;45415;-91
2022/12/21 08:36:53;;;;;;;;;4.00;4.00;;;;;7.75;89.82;100456.94;5001799;28;46645;-92
2022/12/21 08:39:24;;;;;;;;;8.50;5.25;;;;;8.23;89.29;100509.94;4991126;28;45420;-91
2022/12/21 08:41:59;;;;;;;;;3.75;3.75;;;;;7.59;89.45;100414.13;4993496;28;45419;-91
2022/12/21 08:44:37;;;;;;;;;5.75;5.75;;;;;8.47;89.47;100542.16;5009560;28;45346;-91
2022/12/21 08:47:20;;;;;;;;;10.00;5.50;;;;;8.51;89.13;100528.94;4986830;28;47057;-90
2022/12/21 08:49:48;;;;;;;;;3.75;3.75;;;;;8.36;88.78;100519.41;4994335;28;45352;-91
2022/12/21 08:52:15;;;;;;;;;6.50;6.50;;;;;7.74;88.87;100376.25;5010651;28;45303;-91
2022/12/21 08:54:42;;;;;;;;;4.50;4.50;;;;;7.54;88.54;100351.03;5006929;28;45360;-92
2022/12/21 08:57:10;;;;;;;;;6.00;4.50;;;;;8.81;88.69;100531.22;4985903;28;48181;-91
2022/12/21 08:59:36;;;;;;;;;1.75;1.75;;;;;8.60;88.93;100498.97;4988391;28;45275;-92
2022/12/21 09:02:08;;;;;;;;;4.00;4.00;;;;;7.44;88.75;100288.94;5014798;28;45463;-91
2022/12/21 09:04:35;;;;;;;;;3.00;3.00;;;;;7.68;88.58;100323.72;4990749;28;45645;-92
2022/12/21 09:07:09;;;;;;;;;6.00;4.50;;;;;7.17;88.74;100222.63;4992021;28;47353;-91
2022/12/21 09:09:44;;;;;;;;;5.00;4.75;;;;;8.29;88.80;100417.69;4986231;28;45321;-90
2022/12/21 09:12:10;;;;;;;;;4.00;4.00;;;;;9.41;88.52;100581.34;4991849;28;45259;-91
2022/12/21 09:14:37;;;;;;;;;4.00;3.00;;;;;7.86;88.50;100314.72;4994173;28;45312;-93
2022/12/21 09:17:10;;;;;;;;;4.00;4.00;;;;;8.37;88.39;100393.91;4995319;28;48099;-93
2022/12/21 09:19:40;;;;;;;;;4.00;4.00;;;;;7.79;88.37;100285.00;5010073;28;45440;-93
2022/12/21 09:26:01;;;;;;;;;4.25;3.50;;;;;9.89;88.58;100587.63;5013189;28;45412;-91
2022/12/21 09:29:27;;;;;;;;;;;;;;;;;;;;;
2022/12/21 09:38:46;;;;;;;;;5.00;5.00;;;;;9.46;87.75;100461.66;4854085;29;45313;-91
2022/12/21 09:41:39;;;;;;;;;3.25;3.25;;;;;9.96;87.59;100557.59;4833643;29;46874;-92
2022/12/21 09:44:52;;;;;;;;;6.75;6.00;;;;;9.36;87.72;100459.19;4865862;29;45520;-91
2022/12/21 09:47:53;;;;;;;;;3.00;3.00;;;;;9.43;87.72;100467.88;4819710;29;44682;-91
2022/12/21 09:50:30;;;;;;;;;9.25;6.50;;;;;9.67;87.67;100515.84;4786065;29;45633;-92
2022/12/21 09:53:26;;;;;;;;;2.00;2.00;;;;;10.30;87.89;100607.16;4781114;29;45311;-93
2022/12/21 09:55:54;;;;;;;;;4.00;4.00;;;;;9.17;87.82;100434.91;4779455;29;45479;-92
2022/12/21 09:58:37;;;;;;;;;3.00;3.00;;;;;9.67;88.10;100510.56;4781963;29;45264;-92
2022/12/21 10:01:20;;;;;;;;;4.75;3.75;;;;;9.28;87.74;100450.53;4807175;29;45373;-91
2022/12/21 10:04:24;;;;;;;;;;;;;;;;;;;;;
2022/12/21 10:07:09;;;;;;;;;3.00;3.00;;;;;9.18;87.85;100441.03;4774973;29;74249;-89
2022/12/21 10:09:52;;;;;;;;;5.50;4.50;;;;;10.26;87.39;100608.09;4811477;29;45363;-90
2022/12/21 10:12:48;;;;;;;;;4.50;4.25;;;;;10.27;87.66;100615.13;4809574;29;45359;-94
2022/12/21 10:15:29;;;;;;;;;5.00;4.00;;;;;10.26;87.78;100619.56;4812980;29;46834;-93
2022/12/21 10:18:50;;;;;;;;;4.50;4.00;;;;;8.61;87.62;100345.28;4815205;29;45267;-92
2022/12/21 10:21:28;;;;;;;;;3.00;3.00;;;;;8.42;87.75;100306.91;4787556;29;44778;-92
2022/12/21 10:23:58;;;;;;;;;3.75;3.75;;;;;10.23;87.94;100624.91;4818274;29;44842;-91
2022/12/21 10:26:33;;;;;;;;;4.25;4.00;;;;;8.88;87.73;100366.81;4837325;29;45660;-90
2022/12/21 10:29:11;;;;;;;;;5.00;5.00;;;;;9.59;87.83;100494.84;4841954;29;45424;-90
2022/12/21 10:35:24;;;;;;;;;4.00;3.50;;;;;9.81;87.91;100520.88;4814132;29;45485;-91
2022/12/21 10:37:54;;;;;;;;;4.00;4.00;;;;;9.09;87.88;100407.75;4808720;29;47381;-91
2022/12/21 10:40:25;;;;;;;;;5.75;5.75;;;;;10.17;88.19;100598.56;4824115;29;45617;-90
2022/12/21 10:42:56;;;;;;;;;7.00;7.00;;;;;8.61;88.02;100336.50;4815487;29;45482;-91
2022/12/21 10:45:24;;;;;;;;;6.00;6.00;;;;;8.97;87.95;100377.19;4802869;29;45542;-90
2022/12/21 10:47:50;;;;;;;;;4.75;3.25;;;;;10.14;88.38;100575.72;4802199;29;47291;-92
2022/12/21 10:50:35;;;;;;;;;5.00;5.00;;;;;9.53;88.27;100463.31;4815851;29;45227;-93
2022/12/21 10:53:27;;;;;;;;;5.75;4.00;;;;;8.38;87.83;100257.81;4825014;29;44911;-92
2022/12/21 11:02:43;;;;;;;;;4.25;3.25;;;;;9.58;88.38;100466.72;4848960;29;45385;-92
2022/12/21 11:08:48;;;;;;;;;11.00;6.25;;;;;8.39;88.01;100233.22;4851623;29;45278;-93
2022/12/21 11:11:54;;;;;;;;;;;;;;;;;;;;;
2022/12/21 11:14:40;;;;;;;;;10.25;7.25;;;;;8.20;88.01;100201.94;4911843;29;71080;-92
2022/12/21 11:17:38;;;;;;;;;9.75;7.50;;;;;8.54;88.13;100230.34;4919717;29;45294;-93
2022/12/21 11:22:44;;;;;;;;;5.50;5.50;;;;;9.83;87.54;100418.78;4976315;23;45467;-92
2022/12/21 11:25:27;;;;;;;;;7.25;7.00;;;;;10.18;87.52;100447.13;4973779;28;45440;-93
2022/12/21 11:34:41;;;;;;;;;6.00;6.00;;;;;10.66;87.83;100502.53;4944702;28;45348;-91
2022/12/21 11:37:35;;;;;;;;;6.00;4.25;;;;;10.70;87.46;100491.88;4950635;28;45494;-91
2022/12/21 11:41:06;;;;;;;;;;;;;;;;;;;;;
2022/12/21 11:43:51;;;;;;;;;9.50;5.50;;;;;10.80;87.78;100489.00;4907678;28;69271;-91
2022/12/21 11:46:46;;;;;;;;;6.50;5.25;;;;;9.52;87.18;100271.59;4914229;28;46892;-91
2022/12/21 11:53:15;;;;;;;;;7.50;5.50;;;;;10.27;87.50;100395.88;4931647;28;45368;-91
2022/12/21 12:03:27;;;;;;;;;5.00;4.75;;;;;10.73;87.54;100454.81;4960738;28;45322;-90
2022/12/21 12:19:28;;;;;;;;;5.50;5.00;;;;;10.62;88.04;100440.03;4962235;28;44735;-90
2022/12/21 12:22:40;;;;;;;;;4.75;4.75;;;;;10.60;88.11;100428.66;4967417;28;45286;-92
2022/12/21 12:25:31;;;;;;;;;7.50;6.75;;;;;10.07;87.81;100347.00;4969884;28;45287;-91
2022/12/21 12:38:14;;;;;;;;;5.25;3.25;;;;;10.28;86.77;100336.88;4921197;28;45750;-91
2022/12/21 12:44:55;;;;;;;;;3.25;3.25;;;;;10.67;87.24;100384.44;4930470;28;45485;-90
2022/12/21 12:51:16;;;;;;;;;5.50;4.00;;;;;10.72;87.18;100364.06;4882852;29;45569;-93
2022/12/21 12:54:28;;;;;;;;;3.25;3.25;;;;;10.44;86.94;100316.25;4871945;29;45383;-91
2022/12/21 13:00:41;;;;;;;;;;;;;;;;;;;;;
2022/12/21 13:04:10;;;;;;;;;;;;;;;;;;;;;
2022/12/21 13:10:37;;;;;;;;;3.50;3.50;;;;;10.13;87.23;100249.13;4768682;29;45265;-91
2022/12/21 13:23:49;;;;;;;;;3.75;3.00;;;;;9.86;88.68;100191.69;4789987;29;45418;-90
2022/12/21 13:26:38;;;;;;;;;4.00;3.00;;;;;8.55;88.73;99976.59;4794451;29;45523;-92
2022/12/21 13:29:48;;;;;;;;;3.50;2.75;;;;;9.84;89.26;100196.13;4795253;29;45849;-89
2022/12/21 13:32:18;;;;;;;;;3.50;3.50;;;;;8.68;89.61;99992.97;4817236;29;45435;-91
2022/12/21 13:35:15;;;;;;;;;;;;;;;;;;;;;
2022/12/21 13:37:44;;;;;;;;;3.50;2.50;;;;;8.83;89.60;100029.53;4824226;29;69918;-90
2022/12/21 13:40:21;;;;;;;;;3.00;3.00;;;;;8.30;89.40;99945.44;4830516;29;46523;-88
2022/12/21 13:43:19;;;;;;;;;3.75;3.75;;;;;10.38;90.39;100282.94;4837426;29;44874;-90
2022/12/21 13:46:11;;;;;;;;;4.50;3.00;;;;;9.63;90.37;100176.41;4839161;29;44923;-92
2022/12/21 13:48:59;;;;;;;;;3.00;3.00;;;;;8.89;90.43;100047.00;4853301;29;45341;-90
2022/12/21 13:51:28;;;;;;;;;3.25;3.00;;;;;10.29;91.00;100268.16;4859787;29;46861;-89
2022/12/21 13:54:26;;;;;;;;;3.75;3.75;;;;;10.29;91.35;100272.53;4880674;29;45774;-90
2022/12/21 13:57:17;;;;;;;;;6.00;4.00;;;;;10.25;91.78;100270.91;4859964;29;45393;-91
2022/12/21 14:00:03;;;;;;;;;5.25;5.25;;;;;10.23;91.88;100260.38;4835797;29;45491;-90
2022/12/21 14:02:47;;;;;;;;;5.00;4.00;;;;;10.19;91.88;100271.91;4862746;29;46154;-90
2022/12/21 14:05:27;;;;;;;;;5.75;5.75;;;;;10.16;91.99;100268.44;4852122;29;45539;-89